createdAt,value
2023-03-04T00:02:03.628Z,113.03
2023-03-04T00:04:31.317Z,120.63
2023-03-04T00:06:58.758Z,113.13
2023-03-04T00:09:26.272Z,113.47
2023-03-04T00:11:53.666Z,117.97
2023-03-04T00:14:21.291Z,121.30
2023-03-04T00:16:49.321Z,111.67
2023-03-04T00:19:16.743Z,107.40
2023-03-04T00:21:44.124Z,110.50
2023-03-04T00:24:11.570Z,103.47
2023-03-04T00:26:39.008Z,107.60
2023-03-04T00:29:06.619Z,111.20
2023-03-04T00:31:34.117Z,106.77
2023-03-04T00:34:01.679Z,103.57
2023-03-04T00:36:29.210Z,103.27
2023-03-04T00:38:56.682Z,103.00
2023-03-04T00:41:24.139Z,101.40
2023-03-04T00:43:51.709Z,110.23
2023-03-04T00:46:19.198Z,100.67
2023-03-04T00:48:46.765Z,104.93
2023-03-04T00:51:14.285Z,98.83
2023-03-04T00:53:42.403Z,98.87
2023-03-04T00:56:10.019Z,94.03
2023-03-04T00:58:37.536Z,103.90
2023-03-04T01:01:05.056Z,109.10
2023-03-04T01:03:33.188Z,99.47
2023-03-04T01:06:00.598Z,99.27
2023-03-04T01:08:28.127Z,106.50
2023-03-04T01:10:55.527Z,97.00
2023-03-04T01:13:22.992Z,106.40
2023-03-04T01:15:50.528Z,92.00
2023-03-04T01:18:17.977Z,99.20
2023-03-04T01:20:45.467Z,106.17
2023-03-04T01:23:12.961Z,93.17
2023-03-04T01:25:40.391Z,106.37
2023-03-04T01:28:07.858Z,100.63
2023-03-04T01:30:35.303Z,113.93
2023-03-04T01:33:02.822Z,111.30
2023-03-04T01:35:30.292Z,106.03
2023-03-04T01:37:57.806Z,97.70
2023-03-04T01:40:25.255Z,98.23
2023-03-04T01:42:52.758Z,98.47
2023-03-04T01:45:21.022Z,93.37
2023-03-04T01:47:49.261Z,116.10
2023-03-04T01:50:33.573Z,105.70
2023-03-04T01:53:01.393Z,92.93
2023-03-04T01:55:29.688Z,109.63
2023-03-04T01:57:57.721Z,105.43
2023-03-04T02:00:30.983Z,106.43
2023-03-04T02:03:00.834Z,111.57
2023-03-04T02:05:28.975Z,103.13
2023-03-04T02:07:56.891Z,84.80
2023-03-04T02:10:24.872Z,102.87
2023-03-04T02:12:52.732Z,110.27
2023-03-04T02:15:20.414Z,106.23
2023-03-04T02:17:47.884Z,109.03
2023-03-04T02:20:28.942Z,105.67
2023-03-04T02:23:06.500Z,110.63
2023-03-04T02:25:40.618Z,100.90
2023-03-04T02:28:08.215Z,117.53
2023-03-04T02:30:35.753Z,121.23
2023-03-04T02:33:03.221Z,108.10
2023-03-04T02:35:31.197Z,105.17
2023-03-04T02:37:58.723Z,110.70
2023-03-04T02:40:29.527Z,103.63
2023-03-04T02:42:59.600Z,110.27
2023-03-04T02:45:47.110Z,114.77
2023-03-04T02:48:17.065Z,110.83
2023-03-04T02:50:46.217Z,111.73
2023-03-04T02:53:13.817Z,114.70
2023-03-04T02:55:42.454Z,116.73
2023-03-04T02:58:10.943Z,116.53
2023-03-04T03:00:38.820Z,98.83
2023-03-04T03:03:06.620Z,104.13
2023-03-04T03:05:37.221Z,105.93
2023-03-04T03:08:05.115Z,106.80
2023-03-04T03:10:32.807Z,104.07
2023-03-04T03:13:00.824Z,105.57
2023-03-04T03:15:28.465Z,106.97
2023-03-04T03:17:56.694Z,117.83
2023-03-04T03:20:24.162Z,113.63
2023-03-04T03:22:52.397Z,128.10
2023-03-04T03:25:19.974Z,116.67
2023-03-04T03:27:47.568Z,117.43
2023-03-04T03:30:15.968Z,117.30
2023-03-04T03:32:43.448Z,111.00
2023-03-04T03:35:11.123Z,120.33
2023-03-04T03:37:38.689Z,126.00
2023-03-04T03:40:06.456Z,115.23
2023-03-04T03:42:33.962Z,130.87
2023-03-04T03:45:01.384Z,130.20
2023-03-04T03:47:28.909Z,135.90
2023-03-04T03:49:56.327Z,130.63
2023-03-04T03:52:23.758Z,130.87
2023-03-04T03:54:51.237Z,130.17
2023-03-04T03:57:18.720Z,123.80
2023-03-04T03:59:46.132Z,115.50
2023-03-04T04:02:13.753Z,112.20
2023-03-04T04:04:41.351Z,119.37
2023-03-04T04:07:08.859Z,141.87
2023-03-04T04:09:36.323Z,132.60
2023-03-04T04:12:05.341Z,146.97
2023-03-04T04:14:32.919Z,126.60
2023-03-04T04:17:00.588Z,121.87
2023-03-04T04:19:28.028Z,132.43
2023-03-04T04:21:55.555Z,137.73
2023-03-04T04:24:23.015Z,132.83
2023-03-04T04:26:50.478Z,133.37
2023-03-04T04:29:18.017Z,161.33
2023-03-04T04:31:45.563Z,139.03
2023-03-04T04:34:13.101Z,130.93
2023-03-04T04:36:40.629Z,146.13
2023-03-04T04:39:08.101Z,131.83
2023-03-04T04:41:40.268Z,133.53
2023-03-04T04:44:07.740Z,140.33
2023-03-04T04:46:35.328Z,133.20
2023-03-04T04:49:03.052Z,125.63
2023-03-04T04:51:30.494Z,135.83
2023-03-04T04:53:58.005Z,123.27
2023-03-04T04:56:26.720Z,138.97
2023-03-04T04:58:55.214Z,151.27
2023-03-04T05:01:22.680Z,144.00
2023-03-04T05:03:50.750Z,130.87
2023-03-04T05:06:18.185Z,142.07
2023-03-04T05:08:45.652Z,137.40
2023-03-04T05:11:13.076Z,147.27
2023-03-04T05:13:40.611Z,143.23
2023-03-04T05:16:08.462Z,156.43
2023-03-04T05:18:35.965Z,146.43
2023-03-04T05:21:04.378Z,136.40
2023-03-04T05:23:33.058Z,141.33
2023-03-04T05:26:00.661Z,128.73
2023-03-04T05:28:28.182Z,126.17
2023-03-04T05:30:55.822Z,164.63
2023-03-04T05:33:23.350Z,135.83
2023-03-04T05:35:50.931Z,140.03
2023-03-04T05:38:20.316Z,146.97
2023-03-04T05:40:48.351Z,135.53
2023-03-04T05:43:16.243Z,145.47
2023-03-04T05:45:43.716Z,142.17
2023-03-04T05:48:11.477Z,140.07
2023-03-04T05:50:38.878Z,136.80
2023-03-04T05:53:06.337Z,138.70
2023-03-04T05:55:33.740Z,142.30
2023-03-04T05:58:01.200Z,138.20
2023-03-04T06:00:28.707Z,136.60
2023-03-04T06:02:56.222Z,140.13
2023-03-04T06:05:24.563Z,133.90
2023-03-04T06:07:52.070Z,161.27
2023-03-04T06:10:19.516Z,158.23
2023-03-04T06:12:47.148Z,161.90
2023-03-04T06:15:14.853Z,138.63
2023-03-04T06:17:42.818Z,122.83
2023-03-04T06:20:11.316Z,148.37
2023-03-04T06:22:38.778Z,140.13
2023-03-04T06:25:06.522Z,126.90
2023-03-04T06:27:34.042Z,143.00
2023-03-04T06:30:02.162Z,130.70
2023-03-04T06:32:29.687Z,130.73
2023-03-04T06:34:57.209Z,135.77
2023-03-04T06:37:24.836Z,131.10
2023-03-04T06:39:52.606Z,128.63
2023-03-04T06:42:20.095Z,141.83
2023-03-04T06:44:49.571Z,144.53
2023-03-04T06:47:18.856Z,136.83
2023-03-04T06:49:46.264Z,143.57
2023-03-04T06:52:13.705Z,127.47
2023-03-04T06:54:41.157Z,125.00
2023-03-04T06:57:08.649Z,138.30
2023-03-04T06:59:36.066Z,147.33
2023-03-04T07:02:03.532Z,123.90
2023-03-04T07:04:31.032Z,131.40
2023-03-04T07:06:58.504Z,133.90
2023-03-04T07:09:25.905Z,137.47
2023-03-04T07:11:53.473Z,123.00
2023-03-04T07:14:22.895Z,120.70
2023-03-04T07:16:51.539Z,122.53
2023-03-04T07:19:19.031Z,127.27
2023-03-04T07:21:47.016Z,140.40
2023-03-04T07:24:14.449Z,140.27
2023-03-04T07:26:42.105Z,139.97
2023-03-04T07:29:09.608Z,137.13
2023-03-04T07:31:37.360Z,121.07
2023-03-04T07:34:06.455Z,117.97
2023-03-04T07:36:34.708Z,122.77
2023-03-04T07:39:02.184Z,113.50
2023-03-04T07:41:30.221Z,127.97
2023-03-04T07:43:58.488Z,113.23
2023-03-04T07:46:26.148Z,112.87
2023-03-04T07:48:53.724Z,109.90
2023-03-04T07:51:22.732Z,114.03
2023-03-04T07:53:51.225Z,106.73
2023-03-04T07:56:30.291Z,104.83
2023-03-04T07:58:58.076Z,111.43
2023-03-04T08:01:33.002Z,102.70
2023-03-04T08:04:00.782Z,118.77
2023-03-04T08:06:28.458Z,99.83
2023-03-04T08:09:00.420Z,101.60
2023-03-04T08:11:28.901Z,100.73
2023-03-04T08:13:56.672Z,96.63
2023-03-04T08:16:25.119Z,99.30
2023-03-04T08:18:53.837Z,95.40
2023-03-04T08:21:22.649Z,103.30
2023-03-04T08:23:50.335Z,100.73
2023-03-04T08:26:22.524Z,96.37
2023-03-04T08:28:50.437Z,178.83
2023-03-04T08:31:18.881Z,166.33
2023-03-04T08:33:47.038Z,166.67
2023-03-04T08:36:15.118Z,126.40
2023-03-04T08:38:42.818Z,125.07
2023-03-04T08:41:10.573Z,119.47
2023-03-04T08:43:38.119Z,107.70
2023-03-04T08:46:06.310Z,95.33
2023-03-04T08:48:34.110Z,97.77
2023-03-04T08:51:01.612Z,100.90
2023-03-04T08:53:29.099Z,92.70
2023-03-04T08:55:56.604Z,100.27
2023-03-04T08:58:24.016Z,93.23
2023-03-04T09:00:51.704Z,95.20
2023-03-04T09:03:20.568Z,99.50
2023-03-04T09:05:49.380Z,108.83
2023-03-04T09:08:17.005Z,96.57
2023-03-04T09:10:45.447Z,96.23
2023-03-04T09:13:14.790Z,95.10
2023-03-04T09:15:49.293Z,109.23
2023-03-04T09:18:22.158Z,94.33
2023-03-04T09:20:49.805Z,96.67
2023-03-04T09:23:17.535Z,100.07
2023-03-04T09:25:46.520Z,94.13
2023-03-04T09:28:15.030Z,91.07
2023-03-04T09:30:42.504Z,91.07
2023-03-04T09:33:10.048Z,99.70
2023-03-04T09:35:37.746Z,93.33
2023-03-04T09:38:05.286Z,91.87
2023-03-04T09:40:43.534Z,85.70
2023-03-04T09:43:32.140Z,85.33
2023-03-04T09:46:00.741Z,80.67
2023-03-04T09:48:29.888Z,84.57
2023-03-04T09:51:26.823Z,82.77
2023-03-04T09:54:04.427Z,84.77
2023-03-04T09:56:34.529Z,85.93
2023-03-04T09:59:20.474Z,79.40
2023-03-04T10:01:53.181Z,83.43
2023-03-04T10:04:42.099Z,80.33
2023-03-04T10:07:18.387Z,83.73
2023-03-04T10:09:52.987Z,83.80
2023-03-04T10:12:22.554Z,79.93
2023-03-04T10:15:00.601Z,82.97
2023-03-04T10:17:46.015Z,88.13
2023-03-04T10:20:17.504Z,77.87
2023-03-04T10:22:57.231Z,75.40
2023-03-04T10:25:27.282Z,83.97
2023-03-04T10:28:06.808Z,89.17
2023-03-04T10:31:06.653Z,79.10
2023-03-04T10:33:35.913Z,76.13
2023-03-04T10:36:23.557Z,77.57
2023-03-04T10:38:54.613Z,78.37
2023-03-04T10:41:24.939Z,73.53
2023-03-04T10:44:12.681Z,78.93
2023-03-04T10:46:44.908Z,79.17
2023-03-04T10:49:12.860Z,76.40
2023-03-04T10:51:51.642Z,70.77
2023-03-04T10:54:32.629Z,76.67
2023-03-04T10:57:01.640Z,72.90
2023-03-04T11:00:01.532Z,76.10
2023-03-04T11:02:33.870Z,72.17
2023-03-04T11:05:30.626Z,73.37
2023-03-04T11:08:01.032Z,72.37
2023-03-04T11:10:46.325Z,81.07
2023-03-04T11:13:17.690Z,71.07
2023-03-04T11:15:59.301Z,72.17
2023-03-04T11:18:47.625Z,78.97
2023-03-04T11:21:17.895Z,75.80
2023-03-04T11:23:51.613Z,74.97
2023-03-04T11:26:40.265Z,69.70
2023-03-04T11:29:19.784Z,75.10
2023-03-04T11:31:50.488Z,76.43
2023-03-04T11:34:31.769Z,72.23
2023-03-04T11:37:19.556Z,78.30
2023-03-04T11:39:55.700Z,68.53
2023-03-04T11:42:30.971Z,76.43
2023-03-04T11:44:58.555Z,81.03
2023-03-04T11:47:52.283Z,77.13
2023-03-04T11:50:39.272Z,72.63
2023-03-04T11:53:29.942Z,73.13
2023-03-04T11:56:04.850Z,76.83
2023-03-04T11:58:40.577Z,76.47
2023-03-04T12:01:10.591Z,70.00
2023-03-04T12:03:57.499Z,74.30
2023-03-04T12:06:45.293Z,69.60
2023-03-04T12:09:31.772Z,69.97
2023-03-04T12:12:19.624Z,73.63
2023-03-04T12:14:59.190Z,68.43
2023-03-04T12:17:52.338Z,64.50
2023-03-04T12:20:49.166Z,67.03
2023-03-04T12:23:29.009Z,74.97
2023-03-04T12:26:22.644Z,69.50
2023-03-04T12:29:05.034Z,62.10
2023-03-04T12:31:50.428Z,63.90
2023-03-04T12:34:32.086Z,68.50
2023-03-04T12:37:28.471Z,63.67
2023-03-04T12:40:19.462Z,62.67
2023-03-04T12:42:58.287Z,69.00
2023-03-04T12:45:33.761Z,66.60
2023-03-04T12:48:19.806Z,64.20
2023-03-04T12:51:05.904Z,60.57
2023-03-04T12:53:52.253Z,57.67
2023-03-04T12:56:33.896Z,61.70
2023-03-04T12:59:01.711Z,60.90
2023-03-04T13:01:40.240Z,63.10
2023-03-04T13:04:26.306Z,62.73
2023-03-04T13:07:26.322Z,61.70
2023-03-04T13:09:59.869Z,65.63
2023-03-04T13:12:27.577Z,58.40
2023-03-04T13:15:30.352Z,59.17
2023-03-04T13:18:02.536Z,65.60
2023-03-04T13:20:42.728Z,59.50
2023-03-04T13:23:32.051Z,63.10
2023-03-04T13:26:20.887Z,57.23
2023-03-04T13:28:53.486Z,60.30
2023-03-04T13:31:24.328Z,56.17
2023-03-04T13:33:53.344Z,57.70
2023-03-04T13:36:31.499Z,61.13
2023-03-04T13:39:19.180Z,52.23
2023-03-04T13:41:50.772Z,66.93
2023-03-04T13:44:34.959Z,61.93
2023-03-04T13:47:09.938Z,60.77
2023-03-04T13:49:38.000Z,58.10
2023-03-04T13:52:24.188Z,58.03
2023-03-04T13:54:51.705Z,58.17
2023-03-04T13:57:22.428Z,58.87
2023-03-04T13:59:51.554Z,64.90
2023-03-04T14:02:22.655Z,64.67
2023-03-04T14:05:00.511Z,57.50
2023-03-04T14:07:29.358Z,58.40
2023-03-04T14:09:58.088Z,56.27
2023-03-04T14:12:26.739Z,59.70
2023-03-04T14:15:14.392Z,61.37
2023-03-04T14:17:45.512Z,56.50
2023-03-04T14:20:29.423Z,57.00
2023-03-04T14:22:57.828Z,54.30
2023-03-04T14:25:36.789Z,53.37
2023-03-04T14:28:12.151Z,47.63
2023-03-04T14:30:43.208Z,53.87
2023-03-04T14:33:20.741Z,47.70
2023-03-04T14:35:49.382Z,48.77
2023-03-04T14:38:38.215Z,52.80
2023-03-04T14:41:11.661Z,47.87
2023-03-04T14:43:50.651Z,44.13
2023-03-04T14:46:19.066Z,46.37
2023-03-04T14:48:50.002Z,48.33
2023-03-04T14:51:38.368Z,55.87
2023-03-04T14:54:06.649Z,49.53
2023-03-04T14:56:37.068Z,50.97
2023-03-04T14:59:04.874Z,43.80
2023-03-04T15:01:34.463Z,52.57
2023-03-04T15:04:06.429Z,49.73
2023-03-04T15:06:41.517Z,49.70
2023-03-04T15:09:18.771Z,49.77
2023-03-04T15:11:48.303Z,51.40
2023-03-04T15:14:34.229Z,50.87
2023-03-04T15:17:01.769Z,52.83
2023-03-04T15:19:30.231Z,48.90
2023-03-04T15:22:04.753Z,53.30
2023-03-04T15:24:32.287Z,52.37
2023-03-04T15:26:59.797Z,53.20
2023-03-04T15:29:27.341Z,56.17
2023-03-04T15:31:54.768Z,56.83
2023-03-04T15:34:22.245Z,57.10
2023-03-04T15:36:51.471Z,53.80
2023-03-04T15:39:19.924Z,49.40
2023-03-04T15:41:48.492Z,47.60
2023-03-04T15:44:17.198Z,48.73
2023-03-04T15:46:44.655Z,48.13
2023-03-04T15:49:12.450Z,51.57
2023-03-04T15:51:40.080Z,55.00
2023-03-04T15:54:14.376Z,49.83
2023-03-04T15:56:42.023Z,49.87
2023-03-04T15:59:14.590Z,44.47
2023-03-04T16:01:42.328Z,49.50
2023-03-04T16:04:17.272Z,50.27
2023-03-04T16:06:46.236Z,50.10
2023-03-04T16:09:16.887Z,55.60
2023-03-04T16:11:47.603Z,53.87
2023-03-04T16:14:15.731Z,50.17
2023-03-04T16:16:44.466Z,47.10
2023-03-04T16:19:12.050Z,48.77
2023-03-04T16:21:39.678Z,49.70
2023-03-04T16:24:07.217Z,47.30
2023-03-04T16:26:37.785Z,48.93
2023-03-04T16:29:05.208Z,52.63
2023-03-04T16:31:32.773Z,51.10
2023-03-04T16:34:00.316Z,50.63
2023-03-04T16:36:28.233Z,51.77
2023-03-04T16:38:56.185Z,54.17
2023-03-04T16:41:25.982Z,46.93
2023-03-04T16:43:55.798Z,49.87
2023-03-04T16:46:23.619Z,44.67
2023-03-04T16:48:51.180Z,51.93
2023-03-04T16:51:20.348Z,52.57
2023-03-04T16:54:00.303Z,54.20
2023-03-04T16:56:27.893Z,47.20
2023-03-04T16:58:55.344Z,46.17
2023-03-04T17:01:24.352Z,48.33
2023-03-04T17:03:52.196Z,46.83
2023-03-04T17:06:20.962Z,45.10
2023-03-04T17:08:48.470Z,44.67
2023-03-04T17:11:20.107Z,49.33
2023-03-04T17:13:48.146Z,41.57
2023-03-04T17:16:15.903Z,46.40
2023-03-04T17:18:44.417Z,44.90
2023-03-04T17:21:13.192Z,44.93
2023-03-04T17:23:40.715Z,45.97
2023-03-04T17:26:09.325Z,42.93
2023-03-04T17:28:37.374Z,48.97
2023-03-04T17:31:12.323Z,44.20
2023-03-04T17:33:39.965Z,43.47
2023-03-04T17:36:09.899Z,46.20
2023-03-04T17:38:39.015Z,45.77
2023-03-04T17:41:07.434Z,44.40
2023-03-04T17:43:34.917Z,44.07
2023-03-04T17:46:07.385Z,37.67
2023-03-04T17:48:34.898Z,40.73
2023-03-04T17:51:02.357Z,41.17
2023-03-04T17:53:29.890Z,42.47
2023-03-04T17:56:00.187Z,41.83
2023-03-04T17:58:28.678Z,40.70
2023-03-04T18:01:01.247Z,40.50
2023-03-04T18:03:28.855Z,39.87
2023-03-04T18:05:56.320Z,40.17
2023-03-04T18:08:24.381Z,38.17
2023-03-04T18:10:51.986Z,42.03
2023-03-04T18:13:20.613Z,37.63
2023-03-04T18:15:48.046Z,37.33
2023-03-04T18:18:15.615Z,41.67
2023-03-04T18:20:43.046Z,40.63
2023-03-04T18:23:10.521Z,41.70
2023-03-04T18:25:38.081Z,39.23
2023-03-04T18:28:05.598Z,39.93
2023-03-04T18:30:33.051Z,40.27
2023-03-04T18:33:02.228Z,43.10
2023-03-04T18:35:29.712Z,43.77
2023-03-04T18:37:57.277Z,42.83
2023-03-04T18:40:24.685Z,41.77
2023-03-04T18:42:52.357Z,40.27
2023-03-04T18:45:21.518Z,42.83
2023-03-04T18:47:50.716Z,40.60
2023-03-04T18:50:18.958Z,40.67
2023-03-04T18:52:55.918Z,44.00
2023-03-04T18:55:23.838Z,43.03
2023-03-04T18:57:52.673Z,43.57
2023-03-04T19:00:21.442Z,40.50
2023-03-04T19:02:52.756Z,42.53
2023-03-04T19:05:22.279Z,44.20
2023-03-04T19:07:49.686Z,45.23
2023-03-04T19:10:18.504Z,45.17
2023-03-04T19:12:46.028Z,45.43
2023-03-04T19:15:13.974Z,41.07
2023-03-04T19:17:41.526Z,43.17
2023-03-04T19:20:10.307Z,46.10
2023-03-04T19:22:37.833Z,43.70
2023-03-04T19:25:05.556Z,44.00
2023-03-04T19:27:33.076Z,46.17
2023-03-04T19:30:00.602Z,47.30
2023-03-04T19:32:28.145Z,47.70
2023-03-04T19:34:55.668Z,44.83
2023-03-04T19:37:23.055Z,44.37
2023-03-04T19:39:50.595Z,50.90
2023-03-04T19:42:18.065Z,50.20
2023-03-04T19:44:45.540Z,44.97
2023-03-04T19:47:13.170Z,48.83
2023-03-04T19:49:40.844Z,53.87
2023-03-04T19:52:08.512Z,52.93
2023-03-04T19:54:36.085Z,51.63
2023-03-04T19:57:03.628Z,54.83
2023-03-04T19:59:31.155Z,50.87
2023-03-04T20:02:01.264Z,52.90
2023-03-04T20:04:28.918Z,49.83
2023-03-04T20:06:56.354Z,51.60
2023-03-04T20:09:23.787Z,50.00
2023-03-04T20:11:58.347Z,47.67
2023-03-04T20:14:27.544Z,52.47
2023-03-04T20:16:55.335Z,58.00
2023-03-04T20:19:22.858Z,49.47
2023-03-04T20:21:50.297Z,56.47
2023-03-04T20:24:19.233Z,54.43
2023-03-04T20:26:46.853Z,56.70
2023-03-04T20:29:14.272Z,58.97
2023-03-04T20:31:44.286Z,64.20
2023-03-04T20:34:11.818Z,55.87
2023-03-04T20:36:39.487Z,61.57
2023-03-04T20:39:21.513Z,59.80
2023-03-04T20:41:54.901Z,65.33
2023-03-04T20:44:22.365Z,58.10
2023-03-04T20:46:49.827Z,59.53
2023-03-04T20:49:23.545Z,64.07
2023-03-04T20:51:51.542Z,59.83
2023-03-04T20:54:19.033Z,55.83
2023-03-04T20:56:46.830Z,55.53
2023-03-04T20:59:14.241Z,61.80
2023-03-04T21:01:43.642Z,55.70
2023-03-04T21:04:11.638Z,60.93
2023-03-04T21:06:39.758Z,57.20
2023-03-04T21:09:08.468Z,54.83
2023-03-04T21:11:42.778Z,56.60
2023-03-04T21:14:19.554Z,57.30
2023-03-04T21:16:47.130Z,62.13
2023-03-04T21:19:18.644Z,59.63
2023-03-04T21:21:47.005Z,56.87
2023-03-04T21:24:15.615Z,54.93
2023-03-04T21:26:47.716Z,61.13
2023-03-04T21:29:16.009Z,60.07
2023-03-04T21:31:45.159Z,57.77
2023-03-04T21:34:15.853Z,55.60
2023-03-04T21:36:43.413Z,59.80
2023-03-04T21:39:15.567Z,62.60
2023-03-04T21:41:43.131Z,62.07
2023-03-04T21:44:18.059Z,59.13
2023-03-04T21:46:56.444Z,64.90
2023-03-04T21:49:24.012Z,62.93
2023-03-04T21:51:51.495Z,64.83
2023-03-04T21:54:19.288Z,61.87
2023-03-04T21:56:47.037Z,65.13
2023-03-04T21:59:15.038Z,68.97
2023-03-04T22:01:42.820Z,66.27
2023-03-04T22:04:10.294Z,65.90
2023-03-04T22:06:39.362Z,66.20
2023-03-04T22:09:07.621Z,69.40
2023-03-04T22:11:35.270Z,64.10
2023-03-04T22:14:03.677Z,62.47
2023-03-04T22:16:32.796Z,67.70
2023-03-04T22:19:01.676Z,74.47
2023-03-04T22:21:29.083Z,65.40
2023-03-04T22:23:56.510Z,75.37
2023-03-04T22:26:32.936Z,70.70
2023-03-04T22:29:02.068Z,72.07
2023-03-04T22:31:31.693Z,69.97
2023-03-04T22:34:03.544Z,72.03
2023-03-04T22:36:31.751Z,68.17
2023-03-04T22:38:59.562Z,67.63
2023-03-04T22:41:27.108Z,77.03
2023-03-04T22:43:54.687Z,68.33
2023-03-04T22:46:24.524Z,69.93
2023-03-04T22:48:52.844Z,74.30
2023-03-04T22:51:20.835Z,68.83
2023-03-04T22:53:49.082Z,77.07
2023-03-04T22:56:16.618Z,77.83
2023-03-04T22:58:45.281Z,82.00
2023-03-04T23:01:13.616Z,67.30
2023-03-04T23:03:41.691Z,80.40
2023-03-04T23:06:10.478Z,80.57
2023-03-04T23:08:38.753Z,73.57
2023-03-04T23:11:14.199Z,80.30
2023-03-04T23:13:42.021Z,81.33
2023-03-04T23:16:10.547Z,83.50
2023-03-04T23:18:38.705Z,74.93
2023-03-04T23:21:13.972Z,84.00
2023-03-04T23:23:41.986Z,82.10
2023-03-04T23:26:26.235Z,79.73
2023-03-04T23:28:55.797Z,80.30
2023-03-04T23:31:23.708Z,77.80
2023-03-04T23:33:51.222Z,80.37
2023-03-04T23:36:19.672Z,78.77
2023-03-04T23:38:49.062Z,77.83
2023-03-04T23:41:17.912Z,92.30
2023-03-04T23:43:45.670Z,79.37
2023-03-04T23:46:13.639Z,87.37
2023-03-04T23:48:43.303Z,77.40
2023-03-04T23:51:11.020Z,76.93
2023-03-04T23:53:39.187Z,77.97
2023-03-04T23:56:10.052Z,77.37
2023-03-04T23:58:37.933Z,81.57
